Agua Nueva, Texas
Current Conditions -  °F | °C
As of 11:35 AM on Sunday 21 Dec 2014 (Local Time) from KHBV Reporting Station
Overcast Overcast  
Wind Chill: 56°   Ceiling: 1000
Heat Index: 56°   Visibility: 4mi
Dew Point: 52°   Wind: 0mph
Humidity: 84%   Direction: NA
Pressure: 30.08"   Gusts: NA
Location:  27.0695°N, 98.7494°W
Report Text: KHBV 211735Z AUTO 00000KT 4SM OVC010 14/11 A3008 RMK AO2 T01360109 PWINO
Loading
Personal Weather Stations






























Interactive Weather Map New forecast layout! Learn more

10-Day Weather Forecast

Advertisements
Track Severe Weather on mobile